Time;durP1;ratioP1;P1;durP2;ratioP2;P2;SDS_P1;SDS_P2;PMS_P1;PMS_P2;Temp;Humidity;BMP_temperature;BMP_pressure;BME280_temperature;BME280_humidity;BME280_pressure;Samples;Min_cycle;Max_cycle;Signal;HPM_P1;HPM_P2
2022/01/09 00:01:27;;;;;;;58.08;9.00;;;;;;;-145.67;100.00;66521.78;4995763;28;20025;-70
2022/01/09 00:03:52;;;;;;;52.83;8.57;;;;;;;-145.67;100.00;66521.78;4995852;28;20093;-70
2022/01/09 00:06:18;;;;;;;61.30;8.65;;;;;;;-145.67;100.00;66521.78;5004421;28;20104;-69
2022/01/09 00:08:44;;;;;;;56.70;7.80;;;;;;;-145.67;100.00;66521.78;4996016;28;20071;-68
2022/01/09 00:11:17;;;;;;;64.53;9.60;;;;;;;-145.67;100.00;66521.78;5002307;28;20119;-71
2022/01/09 00:13:47;;;;;;;57.22;8.45;;;;;;;-145.67;100.00;66521.78;5010946;28;20040;-71
2022/01/09 00:16:13;;;;;;;58.88;8.45;;;;;;;-145.67;100.00;66521.78;5005478;28;20026;-69
2022/01/09 00:18:38;;;;;;;61.42;8.80;;;;;;;-145.67;100.00;66521.78;4999280;28;20030;-69
2022/01/09 00:21:06;;;;;;;47.45;7.38;;;;;;;-145.67;100.00;66521.78;4996743;28;20603;-70
2022/01/09 00:23:33;;;;;;;69.00;9.02;;;;;;;-145.67;100.00;66521.78;4996322;28;20033;-70
2022/01/09 00:25:59;;;;;;;55.13;8.55;;;;;;;-145.67;100.00;66521.78;5010958;28;20725;-71
2022/01/09 00:28:28;;;;;;;57.60;7.75;;;;;;;-145.67;100.00;66521.78;4996304;28;20760;-70
2022/01/09 00:30:56;;;;;;;47.88;7.57;;;;;;;-145.67;100.00;66521.78;4995979;28;20026;-68
2022/01/09 00:33:23;;;;;;;53.40;8.45;;;;;;;-145.67;100.00;66521.78;4995489;28;20040;-68
2022/01/09 00:35:50;;;;;;;52.15;8.63;;;;;;;-145.67;100.00;66521.78;4994451;28;20043;-70
2022/01/09 00:38:18;;;;;;;49.70;6.50;;;;;;;-145.67;100.00;66521.78;4995322;28;20026;-70
2022/01/09 00:40:44;;;;;;;58.17;8.52;;;;;;;-145.67;100.00;66521.78;5006091;28;20045;-68
2022/01/09 00:43:09;;;;;;;45.88;6.68;;;;;;;-145.67;100.00;66521.78;4999181;28;20165;-70
2022/01/09 00:45:38;;;;;;;60.47;8.90;;;;;;;-145.67;100.00;66521.78;4996133;28;20137;-69
2022/01/09 00:48:04;;;;;;;44.20;7.20;;;;;;;-145.67;100.00;66521.78;5001346;28;20045;-70
2022/01/09 00:50:33;;;;;;;49.40;7.47;;;;;;;-145.67;100.00;66521.78;4983113;28;20043;-69
2022/01/09 00:52:59;;;;;;;50.63;7.53;;;;;;;-145.67;100.00;66521.78;4995086;28;20092;-69
2022/01/09 00:55:24;;;;;;;54.47;7.90;;;;;;;-145.67;100.00;66521.78;5005585;28;20038;-69
2022/01/09 00:57:50;;;;;;;49.63;8.02;;;;;;;-145.67;100.00;66521.78;5010544;28;20038;-67
2022/01/09 01:00:16;;;;;;;48.00;8.43;;;;;;;-145.67;100.00;66521.78;4994973;28;20034;-71
2022/01/09 01:02:44;;;;;;;57.53;7.97;;;;;;;-145.67;100.00;66521.78;5010223;28;20033;-70
2022/01/09 01:05:10;;;;;;;50.42;9.10;;;;;;;-145.67;100.00;66521.78;4994503;28;20049;-70
2022/01/09 01:07:36;;;;;;;52.55;7.90;;;;;;;-145.67;100.00;66521.78;4988161;28;20128;-69
2022/01/09 01:10:02;;;;;;;53.08;8.38;;;;;;;-145.67;100.00;66521.78;4984765;28;20462;-69
2022/01/09 01:12:30;;;;;;;50.65;7.78;;;;;;;-145.67;100.00;66521.78;4995600;28;20060;-69
2022/01/09 01:14:56;;;;;;;51.55;7.78;;;;;;;-145.67;100.00;66521.78;5004230;28;20496;-69
2022/01/09 01:17:22;;;;;;;46.58;7.55;;;;;;;-145.67;100.00;66521.78;5009940;28;20029;-69
2022/01/09 01:19:49;;;;;;;40.08;6.97;;;;;;;-145.67;100.00;66521.78;4998118;28;20053;-69
2022/01/09 01:22:15;;;;;;;50.58;7.43;;;;;;;-145.67;100.00;66521.78;4994634;28;20029;-69
2022/01/09 01:24:41;;;;;;;49.08;7.50;;;;;;;-145.67;100.00;66521.78;5004647;28;20033;-68
2022/01/09 01:27:07;;;;;;;53.13;8.02;;;;;;;-145.67;100.00;66521.78;5000987;28;20033;-69
2022/01/09 01:29:34;;;;;;;57.83;9.02;;;;;;;-145.67;100.00;66521.78;4981782;28;20026;-69
2022/01/09 01:32:00;;;;;;;42.50;6.25;;;;;;;-145.67;100.00;66521.78;5010046;28;20042;-70
2022/01/09 01:34:25;;;;;;;56.88;8.55;;;;;;;-145.67;100.00;66521.78;4998065;28;20034;-69
2022/01/09 01:36:51;;;;;;;61.90;7.88;;;;;;;-145.67;100.00;66521.78;4995139;28;20548;-69
2022/01/09 01:39:19;;;;;;;59.55;9.50;;;;;;;-145.67;100.00;66521.78;4995897;28;20505;-69
2022/01/09 01:41:44;;;;;;;40.63;6.65;;;;;;;-145.67;100.00;66521.78;4993257;28;20025;-69
2022/01/09 01:44:11;;;;;;;49.05;6.68;;;;;;;-145.67;100.00;66521.78;4994018;28;20038;-68
2022/01/09 01:46:38;;;;;;;44.67;7.43;;;;;;;-145.67;100.00;66521.78;4994328;28;21235;-68
2022/01/09 01:49:06;;;;;;;47.72;7.65;;;;;;;-145.67;100.00;66521.78;5000154;28;20117;-69
2022/01/09 01:51:34;;;;;;;47.05;6.85;;;;;;;-145.67;100.00;66521.78;4998036;28;20044;-70
2022/01/09 01:54:03;;;;;;;48.00;7.32;;;;;;;-145.67;100.00;66521.78;5000345;28;20469;-68
2022/01/09 01:56:30;;;;;;;50.30;7.30;;;;;;;-145.67;100.00;66521.78;5008438;28;20036;-69
2022/01/09 01:58:56;;;;;;;54.28;9.02;;;;;;;-145.67;100.00;66521.78;5009012;28;21938;-69
2022/01/09 02:01:21;;;;;;;63.03;8.40;;;;;;;-145.67;100.00;66521.78;4994067;28;20029;-69
2022/01/09 02:03:47;;;;;;;50.17;7.78;;;;;;;-145.67;100.00;66521.78;4992118;28;20042;-69
2022/01/09 02:06:14;;;;;;;50.83;7.25;;;;;;;-145.67;100.00;66521.78;4994330;28;20060;-68
2022/01/09 02:08:43;;;;;;;46.67;7.47;;;;;;;-145.67;100.00;66521.78;5008577;28;20456;-68
2022/01/09 02:11:10;;;;;;;60.60;7.60;;;;;;;-145.67;100.00;66521.78;4994273;28;20134;-70
2022/01/09 02:13:39;;;;;;;42.35;7.35;;;;;;;-145.67;100.00;66521.78;5008082;28;20045;-69
2022/01/09 02:16:05;;;;;;;52.25;8.07;;;;;;;-145.67;100.00;66521.78;4994153;28;20030;-69
2022/01/09 02:18:31;;;;;;;35.65;5.47;;;;;;;-145.67;100.00;66521.78;4993035;28;20307;-71
2022/01/09 02:20:57;;;;;;;35.17;6.20;;;;;;;-145.67;100.00;66521.78;4994609;28;20132;-69
2022/01/09 02:23:22;;;;;;;36.05;5.80;;;;;;;-145.67;100.00;66521.78;4994006;28;20405;-69
2022/01/09 02:25:49;;;;;;;49.08;6.95;;;;;;;-145.67;100.00;66521.78;5008854;28;20492;-69
2022/01/09 02:28:15;;;;;;;43.75;7.05;;;;;;;-145.67;100.00;66521.78;4992895;28;20104;-70
2022/01/09 02:30:41;;;;;;;40.20;6.22;;;;;;;-145.67;100.00;66521.78;4992003;28;20029;-72
2022/01/09 02:33:08;;;;;;;50.70;7.72;;;;;;;-145.67;100.00;66521.78;4997436;28;20033;-71
2022/01/09 02:35:34;;;;;;;42.75;6.90;;;;;;;-145.67;100.00;66521.78;5009112;28;20091;-72
2022/01/09 02:38:03;;;;;;;43.53;6.18;;;;;;;-145.67;100.00;66521.78;4993825;28;20140;-72
2022/01/09 02:40:29;;;;;;;46.38;6.13;;;;;;;-145.67;100.00;66521.78;5008379;28;20332;-71
2022/01/09 02:42:57;;;;;;;39.90;6.05;;;;;;;-145.67;100.00;66521.78;5008746;28;20493;-71
2022/01/09 02:45:26;;;;;;;35.58;6.72;;;;;;;-145.67;100.00;66521.78;4993419;28;20026;-72
2022/01/09 02:47:54;;;;;;;36.47;5.95;;;;;;;-145.67;100.00;66521.78;4992834;28;20118;-71
2022/01/09 02:53:34;;;;;;;40.55;7.05;;;;;;;-145.67;100.00;66521.78;4994916;28;20033;-71
2022/01/09 02:55:37;;;;;;;41.00;6.03;;;;;;;-145.67;100.00;66521.78;5000572;28;20100;-71
2022/01/09 02:58:02;;;;;;;43.30;6.80;;;;;;;-145.67;100.00;66521.78;4994164;28;20801;-71
2022/01/09 03:00:30;;;;;;;45.65;6.50;;;;;;;-145.67;100.00;66521.78;4993933;28;20022;-71
2022/01/09 03:02:59;;;;;;;44.55;7.45;;;;;;;-145.67;100.00;66521.78;5002913;28;20129;-71
2022/01/09 03:05:29;;;;;;;41.60;6.87;;;;;;;-145.67;100.00;66521.78;5008500;28;20270;-71
2022/01/09 03:07:57;;;;;;;41.28;6.60;;;;;;;-145.67;100.00;66521.78;5009200;28;21867;-71
2022/01/09 03:10:23;;;;;;;32.60;5.53;;;;;;;-145.67;100.00;66521.78;4994094;28;20034;-72
2022/01/09 03:12:50;;;;;;;35.58;5.30;;;;;;;-145.67;100.00;66521.78;4993971;28;20036;-71
2022/01/09 03:15:18;;;;;;;40.85;6.82;;;;;;;-145.67;100.00;66521.78;4975850;28;20490;-72
2022/01/09 03:17:44;;;;;;;43.55;6.45;;;;;;;-145.67;100.00;66521.78;4991848;28;20041;-71
2022/01/09 03:20:15;;;;;;;40.33;6.47;;;;;;;-145.67;100.00;66521.78;5002448;28;20052;-71
2022/01/09 03:22:40;;;;;;;42.47;6.18;;;;;;;-145.67;100.00;66521.78;5008249;28;20112;-71
2022/01/09 03:25:07;;;;;;;39.08;6.95;;;;;;;-145.67;100.00;66521.78;4991691;28;20449;-69
2022/01/09 03:27:32;;;;;;;39.92;5.82;;;;;;;-145.67;100.00;66521.78;5000507;28;20056;-71
2022/01/09 03:29:58;;;;;;;56.28;7.80;;;;;;;-145.67;100.00;66521.78;5008038;28;20049;-70
2022/01/09 03:32:26;;;;;;;31.85;6.15;;;;;;;-145.67;100.00;66521.78;4993036;28;20121;-72
2022/01/09 03:34:51;;;;;;;33.58;5.82;;;;;;;-145.67;100.00;66521.78;4995968;28;20037;-72
2022/01/09 03:37:17;;;;;;;38.80;6.60;;;;;;;-145.67;100.00;66521.78;4994157;28;20116;-71
2022/01/09 03:39:43;;;;;;;37.72;6.63;;;;;;;-145.67;100.00;66521.78;4997385;28;20037;-71
2022/01/09 03:42:08;;;;;;;39.17;5.72;;;;;;;-145.67;100.00;66521.78;4996308;28;20501;-71
2022/01/09 03:44:34;;;;;;;47.28;7.22;;;;;;;-145.67;100.00;66521.78;4996501;28;20080;-72
2022/01/09 03:46:59;;;;;;;42.35;6.65;;;;;;;-145.67;100.00;66521.78;4996617;28;20053;-71
2022/01/09 03:49:25;;;;;;;36.35;5.50;;;;;;;-145.67;100.00;66521.78;4996131;28;20061;-72
2022/01/09 03:51:52;;;;;;;35.42;5.32;;;;;;;-145.67;100.00;66521.78;5006018;28;20041;-72
2022/01/09 03:54:20;;;;;;;43.60;6.18;;;;;;;-145.67;100.00;66521.78;5011210;28;20037;-71
2022/01/09 03:56:46;;;;;;;35.58;5.75;;;;;;;-145.67;100.00;66521.78;4997351;28;20034;-72
2022/01/09 03:59:14;;;;;;;45.70;7.13;;;;;;;-145.67;100.00;66521.78;4996341;28;20044;-72
2022/01/09 04:01:39;;;;;;;44.53;6.85;;;;;;;-145.67;100.00;66521.78;4995742;28;20026;-72
2022/01/09 04:04:12;;;;;;;42.10;7.40;;;;;;;-145.67;100.00;66521.78;4996345;28;20037;-71
2022/01/09 04:06:45;;;;;;;41.95;6.75;;;;;;;-145.67;100.00;66521.78;4995565;28;20040;-70
2022/01/09 04:09:18;;;;;;;43.78;6.28;;;;;;;-145.67;100.00;66521.78;5011712;28;20061;-72
2022/01/09 04:11:45;;;;;;;51.28;7.28;;;;;;;-145.67;100.00;66521.78;4995790;28;20042;-72
2022/01/09 04:14:12;;;;;;;50.33;6.30;;;;;;;-145.67;100.00;66521.78;5010245;28;20030;-72
2022/01/09 04:16:37;;;;;;;35.65;5.93;;;;;;;-145.67;100.00;66521.78;4990349;28;20073;-73
2022/01/09 04:19:05;;;;;;;42.00;6.22;;;;;;;-145.67;100.00;66521.78;5005111;28;20099;-72
2022/01/09 04:21:30;;;;;;;43.88;6.43;;;;;;;-145.67;100.00;66521.78;4996717;28;20049;-70
2022/01/09 04:23:56;;;;;;;34.83;6.25;;;;;;;-145.67;100.00;66521.78;4984820;28;20049;-71
2022/01/09 04:26:21;;;;;;;41.15;7.03;;;;;;;-145.67;100.00;66521.78;4997141;28;20029;-69
2022/01/09 04:28:47;;;;;;;41.22;6.88;;;;;;;-145.67;100.00;66521.78;4995515;28;20068;-68
2022/01/09 04:31:13;;;;;;;44.45;7.00;;;;;;;-145.67;100.00;66521.78;5002364;28;20044;-69
2022/01/09 04:33:42;;;;;;;44.55;5.55;;;;;;;-145.67;100.00;66521.78;4996170;28;20041;-71
2022/01/09 04:36:07;;;;;;;43.92;7.25;;;;;;;-145.67;100.00;66521.78;4995745;28;20053;-70
2022/01/09 04:38:33;;;;;;;54.10;6.53;;;;;;;-145.67;100.00;66521.78;4996185;28;20124;-70
2022/01/09 04:40:58;;;;;;;37.00;5.82;;;;;;;-145.67;100.00;66521.78;5006649;28;20044;-72
2022/01/09 04:43:24;;;;;;;23.33;4.38;;;;;;;-145.67;100.00;66521.78;4995061;28;20177;-71
2022/01/09 04:45:52;;;;;;;34.50;6.05;;;;;;;-145.67;100.00;66521.78;4994969;28;20075;-70
2022/01/09 04:48:17;;;;;;;39.53;6.60;;;;;;;-145.67;100.00;66521.78;5002525;28;20045;-71
2022/01/09 04:50:51;;;;;;;41.80;6.20;;;;;;;-145.67;100.00;66521.78;4995343;28;20096;-71
2022/01/09 04:53:17;;;;;;;54.60;7.65;;;;;;;-145.67;100.00;66521.78;5004968;28;20045;-71
2022/01/09 04:55:48;;;;;;;35.83;5.75;;;;;;;-145.67;100.00;66521.78;5009844;28;20067;-71
2022/01/09 04:58:14;;;;;;;43.03;6.63;;;;;;;-145.67;100.00;66521.78;4998977;28;20038;-72
2022/01/09 05:00:40;;;;;;;42.90;5.97;;;;;;;-145.67;100.00;66521.78;4984918;28;20056;-72
2022/01/09 05:03:08;;;;;;;54.28;7.28;;;;;;;-145.67;100.00;66521.78;4976950;28;20053;-72
2022/01/09 05:05:34;;;;;;;45.83;7.30;;;;;;;-145.67;100.00;66521.78;4995170;28;20044;-70
2022/01/09 05:08:00;;;;;;;52.28;6.35;;;;;;;-145.67;100.00;66521.78;5004744;28;20030;-70
2022/01/09 05:10:26;;;;;;;40.03;7.35;;;;;;;-145.67;100.00;66521.78;4995367;28;20034;-71
2022/01/09 05:12:51;;;;;;;50.78;6.88;;;;;;;-145.67;100.00;66521.78;5003573;28;20045;-71
2022/01/09 05:15:19;;;;;;;38.47;5.75;;;;;;;-145.67;100.00;66521.78;4995035;28;20042;-70
2022/01/09 05:17:44;;;;;;;42.70;6.07;;;;;;;-145.67;100.00;66521.78;4980689;28;21918;-69
2022/01/09 05:20:10;;;;;;;36.00;5.45;;;;;;;-145.67;100.00;66521.78;4994288;28;20128;-70
2022/01/09 05:22:36;;;;;;;48.97;6.45;;;;;;;-145.67;100.00;66521.78;4998064;28;20131;-70
2022/01/09 05:25:06;;;;;;;32.60;5.75;;;;;;;-145.67;100.00;66521.78;4994122;28;20313;-70
2022/01/09 05:27:32;;;;;;;47.25;7.57;;;;;;;-145.67;100.00;66521.78;4992580;28;20057;-70
2022/01/09 05:29:58;;;;;;;45.30;6.88;;;;;;;-145.67;100.00;66521.78;5009330;28;20467;-69
2022/01/09 05:32:24;;;;;;;41.67;6.35;;;;;;;-145.67;100.00;66521.78;4999283;28;20030;-70
2022/01/09 05:34:49;;;;;;;40.33;6.43;;;;;;;-145.67;100.00;66521.78;4994433;28;20128;-71
2022/01/09 05:37:15;;;;;;;33.97;4.85;;;;;;;-145.67;100.00;66521.78;4994941;28;20029;-71
2022/01/09 05:39:41;;;;;;;39.97;6.32;;;;;;;-145.67;100.00;66521.78;4994840;28;20038;-70
2022/01/09 05:42:09;;;;;;;38.97;6.32;;;;;;;-145.67;100.00;66521.78;4998975;28;20034;-70
2022/01/09 05:44:34;;;;;;;33.63;6.47;;;;;;;-145.67;100.00;66521.78;4993763;28;20033;-71
2022/01/09 05:47:02;;;;;;;44.17;6.10;;;;;;;-145.67;100.00;66521.78;4993902;28;20045;-71
2022/01/09 05:49:28;;;;;;;34.75;6.82;;;;;;;-145.67;100.00;66521.78;5008425;28;20484;-71
2022/01/09 05:51:56;;;;;;;38.05;5.95;;;;;;;-145.67;100.00;66521.78;4994624;28;20049;-70
2022/01/09 05:54:22;;;;;;;34.88;5.40;;;;;;;-145.67;100.00;66521.78;5008638;28;20030;-70
2022/01/09 05:56:53;;;;;;;48.30;6.53;;;;;;;-145.67;100.00;66521.78;4993989;28;20077;-70
2022/01/09 05:59:19;;;;;;;31.33;4.73;;;;;;;-145.67;100.00;66521.78;4993698;28;20034;-71
2022/01/09 06:01:49;;;;;;;27.83;4.70;;;;;;;-145.67;100.00;66521.78;5001154;28;20342;-71
2022/01/09 06:04:15;;;;;;;39.55;5.22;;;;;;;-145.67;100.00;66521.78;4987790;28;20037;-70
2022/01/09 06:06:40;;;;;;;35.17;4.97;;;;;;;-145.67;100.00;66521.78;4993598;28;20029;-70
2022/01/09 06:09:09;;;;;;;38.58;5.88;;;;;;;-145.67;100.00;66521.78;4993655;28;20533;-72
2022/01/09 06:11:40;;;;;;;44.50;6.85;;;;;;;-145.67;100.00;66521.78;4993564;28;20036;-72
2022/01/09 06:14:05;;;;;;;37.38;6.63;;;;;;;-145.67;100.00;66521.78;4994131;28;20276;-72
2022/01/09 06:16:31;;;;;;;35.00;5.72;;;;;;;-145.67;100.00;66521.78;5009074;28;20051;-70
2022/01/09 06:18:57;;;;;;;36.88;5.30;;;;;;;-145.67;100.00;66521.78;4997863;28;20030;-70
2022/01/09 06:21:26;;;;;;;41.67;6.72;;;;;;;-145.67;100.00;66521.78;4992166;28;20034;-70
2022/01/09 06:23:51;;;;;;;43.65;5.68;;;;;;;-145.67;100.00;66521.78;5008307;28;20206;-70
2022/01/09 06:26:17;;;;;;;39.58;5.75;;;;;;;-145.67;100.00;66521.78;4993742;28;20469;-71
2022/01/09 06:28:42;;;;;;;34.45;5.63;;;;;;;-145.67;100.00;66521.78;5000225;28;20030;-70
2022/01/09 06:31:08;;;;;;;46.10;7.25;;;;;;;-145.67;100.00;66521.78;4992610;28;20197;-70
2022/01/09 06:33:35;;;;;;;42.47;6.03;;;;;;;-145.67;100.00;66521.78;4993753;28;20079;-70
2022/01/09 06:36:01;;;;;;;40.40;5.45;;;;;;;-145.67;100.00;66521.78;4993963;28;20393;-70
2022/01/09 06:38:27;;;;;;;27.55;5.30;;;;;;;-145.67;100.00;66521.78;4994181;28;20042;-71
2022/01/09 06:40:52;;;;;;;40.45;5.20;;;;;;;-145.67;100.00;66521.78;4993778;28;20038;-70
2022/01/09 06:43:18;;;;;;;32.85;5.47;;;;;;;-145.67;100.00;66521.78;4994102;28;20138;-71
2022/01/09 06:45:43;;;;;;;33.13;5.45;;;;;;;-145.67;100.00;66521.78;4993890;28;20986;-69
2022/01/09 06:48:11;;;;;;;25.73;4.22;;;;;;;-145.67;100.00;66521.78;4999347;28;20078;-70
2022/01/09 06:50:39;;;;;;;35.92;4.60;;;;;;;-145.67;100.00;66521.78;4997612;28;20449;-70
2022/01/09 06:53:07;;;;;;;25.20;4.72;;;;;;;-145.67;100.00;66521.78;4993613;28;20048;-71
2022/01/09 06:55:32;;;;;;;38.45;5.05;;;;;;;-145.67;100.00;66521.78;4993154;28;20034;-70
2022/01/09 06:57:58;;;;;;;35.60;5.28;;;;;;;-145.67;100.00;66521.78;4994190;28;21933;-70
2022/01/09 07:00:24;;;;;;;41.55;6.50;;;;;;;-145.67;100.00;66521.78;4993397;28;20043;-71
2022/01/09 07:02:49;;;;;;;36.40;6.20;;;;;;;-145.67;100.00;66521.78;4994080;28;20037;-70
2022/01/09 07:05:16;;;;;;;43.45;6.00;;;;;;;-145.67;100.00;66521.78;4993074;28;20030;-71
2022/01/09 07:07:44;;;;;;;44.72;6.50;;;;;;;-145.67;100.00;66521.78;4999301;28;20110;-70
2022/01/09 07:10:13;;;;;;;38.28;7.00;;;;;;;-145.67;100.00;66521.78;4993423;28;20134;-70
2022/01/09 07:12:41;;;;;;;31.63;6.43;;;;;;;-145.67;100.00;66521.78;4994211;28;22309;-69
2022/01/09 07:15:06;;;;;;;39.08;5.65;;;;;;;-145.67;100.00;66521.78;5010013;28;20587;-70
2022/01/09 07:17:32;;;;;;;35.35;6.32;;;;;;;-145.67;100.00;66521.78;4997675;28;20104;-70
2022/01/09 07:20:00;;;;;;;31.10;5.82;;;;;;;-145.67;100.00;66521.78;5011838;28;20056;-70
2022/01/09 07:22:27;;;;;;;42.38;6.72;;;;;;;-145.67;100.00;66521.78;4986602;28;20045;-70
2022/01/09 07:24:53;;;;;;;34.70;4.97;;;;;;;-145.67;100.00;66521.78;4997052;28;20112;-70
2022/01/09 07:27:18;;;;;;;25.30;5.35;;;;;;;-145.67;100.00;66521.78;4997165;28;20037;-70
2022/01/09 07:29:44;;;;;;;22.80;4.18;;;;;;;-145.67;100.00;66521.78;4997203;28;20045;-70
2022/01/09 07:32:12;;;;;;;32.00;5.70;;;;;;;-145.67;100.00;66521.78;5011778;28;20068;-70
2022/01/09 07:34:38;;;;;;;25.90;5.47;;;;;;;-145.67;100.00;66521.78;4996764;28;20107;-71
2022/01/09 07:37:04;;;;;;;38.25;6.03;;;;;;;-145.67;100.00;66521.78;5001239;28;20037;-71
2022/01/09 07:39:29;;;;;;;36.45;5.88;;;;;;;-145.67;100.00;66521.78;4996790;28;20046;-71
2022/01/09 07:41:57;;;;;;;38.10;5.80;;;;;;;-145.67;100.00;66521.78;5000928;28;20132;-70
2022/01/09 07:44:23;;;;;;;48.60;6.50;;;;;;;-145.67;100.00;66521.78;4996689;28;20037;-70
2022/01/09 07:46:48;;;;;;;34.92;5.82;;;;;;;-145.67;100.00;66521.78;4995704;28;20143;-71
2022/01/09 07:49:14;;;;;;;49.15;6.95;;;;;;;-145.67;100.00;66521.78;4996484;28;20045;-71
2022/01/09 07:51:39;;;;;;;34.35;5.60;;;;;;;-145.67;100.00;66521.78;5011744;28;20037;-71
2022/01/09 07:54:05;;;;;;;35.40;5.18;;;;;;;-145.67;100.00;66521.78;4996358;28;20505;-71
2022/01/09 07:56:31;;;;;;;40.00;6.88;;;;;;;-145.67;100.00;66521.78;4996744;28;20083;-70
2022/01/09 07:58:58;;;;;;;31.42;5.07;;;;;;;-145.67;100.00;66521.78;5011239;28;20038;-71
2022/01/09 08:01:24;;;;;;;31.15;4.70;;;;;;;-145.67;100.00;66521.78;4997489;28;20026;-71
2022/01/09 08:03:50;;;;;;;33.28;6.00;;;;;;;-145.67;100.00;66521.78;4996300;28;20045;-71
2022/01/09 08:06:15;;;;;;;39.63;5.97;;;;;;;-145.67;100.00;66521.78;5010926;28;20034;-71
2022/01/09 08:08:41;;;;;;;31.15;5.75;;;;;;;-145.67;100.00;66521.78;4996442;28;20030;-70
2022/01/09 08:11:07;;;;;;;49.17;7.38;;;;;;;-145.67;100.00;66521.78;4996889;28;20041;-70
2022/01/09 08:13:32;;;;;;;46.53;6.07;;;;;;;-145.67;100.00;66521.78;4999942;28;20025;-71
2022/01/09 08:16:00;;;;;;;47.53;7.30;;;;;;;-145.67;100.00;66521.78;4999935;28;20069;-70
2022/01/09 08:18:27;;;;;;;39.55;6.32;;;;;;;-145.67;100.00;66521.78;4994510;28;22108;-70
2022/01/09 08:20:53;;;;;;;49.67;7.57;;;;;;;-145.67;100.00;66521.78;4996006;28;20136;-72
2022/01/09 08:23:18;;;;;;;34.67;5.70;;;;;;;-145.67;100.00;66521.78;4996320;28;20037;-70
2022/01/09 08:25:46;;;;;;;37.40;5.60;;;;;;;-145.67;100.00;66521.78;4994383;28;20129;-69
2022/01/09 08:28:12;;;;;;;30.00;5.38;;;;;;;-145.67;100.00;66521.78;4996822;28;20654;-71
2022/01/09 08:30:37;;;;;;;46.20;7.78;;;;;;;-145.67;100.00;66521.78;4991095;28;20055;-71
2022/01/09 08:33:03;;;;;;;42.92;7.30;;;;;;;-145.67;100.00;66521.78;4995032;28;20661;-71
2022/01/09 08:35:29;;;;;;;40.78;6.60;;;;;;;-145.67;100.00;66521.78;5010474;28;20412;-70
2022/01/09 08:37:54;;;;;;;43.28;6.28;;;;;;;-145.67;100.00;66521.78;4995701;28;20162;-71
2022/01/09 08:40:22;;;;;;;43.20;5.50;;;;;;;-145.67;100.00;66521.78;4995975;28;20099;-70
2022/01/09 08:42:48;;;;;;;46.25;6.32;;;;;;;-145.67;100.00;66521.78;5010818;28;20022;-71
2022/01/09 08:45:14;;;;;;;35.20;5.40;;;;;;;-145.67;100.00;66521.78;4996055;28;20041;-71
2022/01/09 08:47:41;;;;;;;38.45;5.57;;;;;;;-145.67;100.00;66521.78;4994285;28;20054;-71
2022/01/09 08:50:07;;;;;;;36.08;5.50;;;;;;;-145.67;100.00;66521.78;5010564;28;20507;-70
2022/01/09 08:52:33;;;;;;;37.00;5.75;;;;;;;-145.67;100.00;66521.78;5010268;28;20029;-70
2022/01/09 08:55:03;;;;;;;41.63;5.85;;;;;;;-145.67;100.00;66521.78;5002053;28;20401;-70
2022/01/09 08:57:29;;;;;;;38.92;5.57;;;;;;;-145.67;100.00;66521.78;4995530;28;20083;-70
2022/01/09 08:59:54;;;;;;;34.20;6.32;;;;;;;-145.67;100.00;66521.78;4984849;28;20092;-70
2022/01/09 09:02:22;;;;;;;46.28;6.38;;;;;;;-145.67;100.00;66521.78;5002143;28;20547;-70
2022/01/09 09:04:48;;;;;;;31.23;5.63;;;;;;;-145.67;100.00;66521.78;4995018;28;20080;-72
2022/01/09 09:07:23;;;;;;;45.05;6.10;;;;;;;-145.67;100.00;66521.78;4996121;28;20049;-71
2022/01/09 09:09:49;;;;;;;37.78;5.32;;;;;;;-145.67;100.00;66521.78;4995031;28;20520;-71
2022/01/09 09:12:15;;;;;;;35.38;6.20;;;;;;;-145.67;100.00;66521.78;4988786;28;20041;-70
2022/01/09 09:14:42;;;;;;;31.08;5.03;;;;;;;-145.67;100.00;66521.78;4995595;28;20482;-70
2022/01/09 09:17:10;;;;;;;30.92;5.28;;;;;;;-145.67;100.00;66521.78;5000910;28;20107;-71
2022/01/09 09:19:38;;;;;;;38.72;5.35;;;;;;;-145.67;100.00;66521.78;4994321;28;20032;-70
2022/01/09 09:22:04;;;;;;;44.00;6.40;;;;;;;-145.67;100.00;66521.78;4994279;28;20223;-71
2022/01/09 09:24:30;;;;;;;40.30;6.25;;;;;;;-145.67;100.00;66521.78;4994483;28;20117;-72
2022/01/09 09:26:58;;;;;;;37.85;7.05;;;;;;;-145.67;100.00;66521.78;4995445;28;20176;-71
2022/01/09 09:29:26;;;;;;;32.22;5.53;;;;;;;-145.67;100.00;66521.78;4994983;28;20041;-71
2022/01/09 09:31:51;;;;;;;33.78;6.38;;;;;;;-145.67;100.00;66521.78;4993081;28;20045;-72
2022/01/09 09:34:17;;;;;;;47.22;7.15;;;;;;;-145.67;100.00;66521.78;4994721;28;20037;-72
2022/01/09 09:36:45;;;;;;;45.13;6.65;;;;;;;-145.67;100.00;66521.78;4994827;28;20033;-72
2022/01/09 09:39:15;;;;;;;40.70;6.57;;;;;;;-145.67;100.00;66521.78;4994282;28;20504;-71
2022/01/09 09:41:41;;;;;;;34.35;5.78;;;;;;;-145.67;100.00;66521.78;4995147;28;20055;-72
2022/01/09 09:44:09;;;;;;;43.17;6.35;;;;;;;-145.67;100.00;66521.78;4984382;28;20087;-71
2022/01/09 09:46:36;;;;;;;58.22;6.82;;;;;;;-145.67;100.00;66521.78;5001376;28;20065;-71
2022/01/09 09:49:05;;;;;;;40.22;5.97;;;;;;;-145.67;100.00;66521.78;5009384;28;20073;-71
2022/01/09 09:51:30;;;;;;;34.53;5.40;;;;;;;-145.67;100.00;66521.78;4994543;28;20190;-69
2022/01/09 09:53:57;;;;;;;44.00;7.68;;;;;;;-145.67;100.00;66521.78;4995193;28;20037;-70
2022/01/09 09:56:25;;;;;;;39.95;6.10;;;;;;;-145.67;100.00;66521.78;4995059;28;20104;-69
2022/01/09 09:58:51;;;;;;;40.97;6.55;;;;;;;-145.67;100.00;66521.78;5000917;28;20042;-70
2022/01/09 10:01:24;;;;;;;46.08;6.63;;;;;;;-145.67;100.00;66521.78;4994648;28;20485;-70
2022/01/09 10:03:59;;;;;;;43.88;7.50;;;;;;;-145.67;100.00;66521.78;5008118;28;20276;-70
2022/01/09 10:06:38;;;;;;;42.22;6.35;;;;;;;-145.67;100.00;66521.78;4994657;28;20061;-69
2022/01/09 10:09:23;;;;;;;39.75;5.75;;;;;;;-145.67;100.00;66521.78;4999680;28;20068;-70
2022/01/09 10:11:54;;;;;;;50.00;7.82;;;;;;;-145.67;100.00;66521.78;4994446;28;20493;-70
2022/01/09 10:14:25;;;;;;;40.78;6.38;;;;;;;-145.67;100.00;66521.78;4994157;28;22029;-69
2022/01/09 10:17:13;;;;;;;34.63;6.57;;;;;;;-145.67;100.00;66521.78;4987730;28;20041;-69
2022/01/09 10:19:42;;;;;;;43.38;7.72;;;;;;;-145.67;100.00;66521.78;4993859;28;20768;-73
2022/01/09 10:22:40;;;;;;;38.25;6.10;;;;;;;-145.67;100.00;66521.78;4994271;28;20544;-71
2022/01/09 10:25:25;;;;;;;31.15;5.10;;;;;;;-145.67;100.00;66521.78;4993868;28;20049;-71
2022/01/09 10:27:51;;;;;;;;;;;;;;;-145.67;100.00;66521.78;4994933;28;20259;-71
2022/01/09 10:30:21;;;;;;;43.00;6.95;;;;;;;-145.67;100.00;66521.78;5008432;28;19932;-71
2022/01/09 10:32:47;;;;;;;33.78;5.32;;;;;;;-145.67;100.00;66521.78;5008605;28;20497;-70
2022/01/09 10:35:18;;;;;;;35.45;4.97;;;;;;;-145.67;100.00;66521.78;4996794;28;20052;-70
2022/01/09 10:37:46;;;;;;;32.63;5.00;;;;;;;-145.67;100.00;66521.78;5008223;28;20551;-70
2022/01/09 10:40:19;;;;;;;29.38;4.70;;;;;;;-145.67;100.00;66521.78;4993496;28;20033;-70
2022/01/09 10:42:44;;;;;;;22.13;4.03;;;;;;;-145.67;100.00;66521.78;4997836;28;20022;-70
2022/01/09 10:45:24;;;;;;;25.38;4.32;;;;;;;-145.67;100.00;66521.78;5000657;28;20356;-70
2022/01/09 10:47:56;;;;;;;;;;;;;;;-145.67;100.00;66521.78;4994811;28;20074;-69
2022/01/09 10:50:31;;;;;;;33.10;4.50;;;;;;;-145.67;100.00;66521.78;4986191;28;19987;-71
2022/01/09 10:53:17;;;;;;;31.83;4.38;;;;;;;-145.67;100.00;66521.78;5013484;28;20104;-71
2022/01/09 10:55:49;;;;;;;38.97;4.57;;;;;;;-145.67;100.00;66521.78;4997837;28;20219;-71
2022/01/09 10:58:16;;;;;;;38.03;5.35;;;;;;;-145.67;100.00;66521.78;4996059;28;20392;-71
2022/01/09 11:00:41;;;;;;;28.70;5.00;;;;;;;-145.67;100.00;66521.78;5012654;28;20037;-71
2022/01/09 11:03:09;;;;;;;46.42;6.28;;;;;;;-145.67;100.00;66521.78;4995506;28;20428;-71
2022/01/09 11:05:35;;;;;;;43.05;6.20;;;;;;;-145.67;100.00;66521.78;4998386;28;20520;-70